Havana, Kansas
Current Conditions -  °F | °C
As of 2:55 PM on Friday 31 Oct 2014 (Local Time) from KIDP Reporting Station
Clear Clear  
Wind Chill: 42°   Ceiling: Unl
Heat Index: 48°   Visibility: 10mi
Dew Point: 19°   Wind: 16mph
Humidity: 32%   Direction: 20°NNE
Pressure: 30.42"   Gusts: 21mph
Location:  37.09°N, 95.94°W
Report Text: KIDP 311955Z AUTO 02014G18KT 10SM CLR 09/M07 A3042 RMK AO2
Loading
Personal Weather Stations






























Interactive Weather Map
Tropical Storm Tracking
New forecast layout! Learn more

10-Day Weather Forecast

Advertisements
Track Severe Weather on mobile